Time;durP1;ratioP1;P1;durP2;ratioP2;P2;SDS_P1;SDS_P2;PMS_P1;PMS_P2;Temp;Humidity;BMP_temperature;BMP_pressure;BME280_temperature;BME280_humidity;BME280_pressure;Samples;Min_cycle;Max_cycle;Signal;HPM_P1;HPM_P2
2022/08/24 00:00:20;;;;;;;44.17;10.70;;;;;;;-143.84;92.57;45071.91;5130547;27;20442;-76
2022/08/24 00:02:48;;;;;;;41.23;10.20;;;;;;;-143.84;92.95;45056.69;5130329;27;20450;-76
2022/08/24 00:05:16;;;;;;;45.10;11.70;;;;;;;-143.84;93.22;45132.84;5130488;27;21019;-75
2022/08/24 00:07:43;;;;;;;47.33;10.73;;;;;;;-143.84;93.48;45079.53;5130479;27;20511;-76
2022/08/24 00:10:12;;;;;;;30.70;10.10;;;;;;;-143.84;93.87;45068.13;5130545;27;20434;-76
2022/08/24 00:12:39;;;;;;;35.47;9.77;;;;;;;-143.84;94.17;45083.34;5130513;27;20439;-76
2022/08/24 00:15:11;;;;;;;54.50;13.40;;;;;;;-143.84;94.32;45077.63;5130470;27;20999;-76
2022/08/24 00:17:39;;;;;;;47.70;10.33;;;;;;;-143.84;95.08;45073.81;5130388;27;20442;-76
2022/08/24 00:20:09;;;;;;;35.57;10.93;;;;;;;-143.84;95.68;45068.13;5130461;27;20434;-76
2022/08/24 00:22:37;;;;;;;33.63;11.07;;;;;;;-143.84;95.36;45096.66;5130678;27;20479;-75
2022/08/24 00:25:06;;;;;;;30.37;10.47;;;;;;;-143.84;95.84;45090.97;5130074;27;20860;-76
2022/08/24 00:27:33;;;;;;;65.63;11.60;;;;;;;-143.84;95.94;45081.44;5130478;27;20994;-76
2022/08/24 00:30:01;;;;;;;49.10;11.13;;;;;;;-143.84;96.01;45104.28;5130374;27;20490;-75
2022/08/24 00:32:29;;;;;;;42.93;11.27;;;;;;;-143.84;96.21;45068.13;5130226;27;20439;-76
2022/08/24 00:34:56;;;;;;;49.83;11.73;;;;;;;-143.84;96.22;45090.97;5129952;27;20559;-76
2022/08/24 00:37:24;;;;;;;62.77;11.63;;;;;;;-143.84;96.11;45054.78;5129747;27;20501;-76
2022/08/24 00:39:52;;;;;;;57.90;12.33;;;;;;;-143.84;96.07;45062.41;5129926;27;20990;-76
2022/08/24 00:42:19;;;;;;;41.90;12.50;;;;;;;-143.84;96.22;45090.97;5129982;27;20437;-75
2022/08/24 00:44:46;;;;;;;44.43;11.20;;;;;;;-143.84;96.09;45092.88;5129993;27;20438;-76
2022/08/24 00:47:19;;;;;;;49.33;12.90;;;;;;;-143.84;96.08;45085.25;5129813;27;20464;-76
2022/08/24 00:49:54;;;;;;;37.20;11.50;;;;;;;-143.84;95.93;45068.13;5130216;27;20461;-76
2022/08/24 00:52:26;;;;;;;38.13;10.70;;;;;;;-143.84;95.54;45075.72;5130067;27;20480;-75
2022/08/24 00:54:56;;;;;;;41.27;11.13;;;;;;;-143.84;95.43;45073.81;5130258;28;20485;-76
2022/08/24 00:57:28;;;;;;;60.17;12.00;;;;;;;-143.84;95.12;45073.81;5129920;28;20442;-76
2022/08/24 00:59:59;;;;;;;63.17;11.30;;;;;;;-143.84;95.05;45081.44;5130010;28;20499;-76
2022/08/24 01:02:30;;;;;;;63.20;12.20;;;;;;;-143.84;94.99;45056.69;5129920;28;20441;-76
2022/08/24 01:05:00;;;;;;;38.67;11.30;;;;;;;-143.84;95.01;45079.53;5129953;28;20446;-76
2022/08/24 01:07:30;;;;;;;46.77;12.30;;;;;;;-143.84;95.14;45070.00;5129986;28;20585;-76
2022/08/24 01:10:02;;;;;;;37.80;11.80;;;;;;;-143.84;95.28;45066.22;5129837;28;20445;-76
2022/08/24 01:12:33;;;;;;;48.60;13.20;;;;;;;-143.84;95.59;45060.50;5129704;28;20442;-76
2022/08/24 01:15:02;;;;;;;33.40;11.50;;;;;;;-143.84;95.66;45089.06;5129745;28;20481;-76
2022/08/24 01:20:16;;;;;;;40.00;11.13;;;;;;;-143.84;95.28;45079.53;5129996;28;20425;-76
2022/08/24 01:22:56;;;;;;;51.03;13.00;;;;;;;-143.84;95.39;45075.72;5129832;28;21136;-76
2022/08/24 01:25:27;;;;;;;39.63;11.33;;;;;;;-143.84;95.32;45081.44;5129477;28;20474;-76
2022/08/24 01:27:57;;;;;;;60.37;12.53;;;;;;;-143.84;95.05;45094.78;5129585;28;20430;-76
2022/08/24 01:30:24;;;;;;;49.80;10.80;;;;;;;-143.84;94.83;45089.06;5130591;28;20449;-73
2022/08/24 01:32:56;;;;;;;44.00;10.10;;;;;;;-143.84;94.49;45070.00;5130725;28;20434;-73
2022/08/24 01:35:24;;;;;;;50.00;10.33;;;;;;;-143.84;94.53;45043.34;5131344;27;21121;-73
2022/08/24 01:37:51;;;;;;;49.53;12.60;;;;;;;-143.84;94.45;45073.81;5134635;27;20434;-73
2022/08/24 01:40:20;;;;;;;44.20;12.27;;;;;;;-143.84;93.85;45070.00;5134665;27;20433;-73
2022/08/24 01:42:51;;;;;;;51.37;12.73;;;;;;;-143.84;93.31;45062.41;5134921;27;20845;-73
2022/08/24 01:45:19;;;;;;;47.73;11.60;;;;;;;-143.84;93.10;45073.81;5134350;27;20446;-73
2022/08/24 01:47:47;;;;;;;55.50;13.00;;;;;;;-143.84;92.97;45083.34;5134509;27;20863;-73
2022/08/24 01:50:14;;;;;;;50.63;11.63;;;;;;;-143.84;92.68;45079.53;5133962;27;20485;-73
2022/08/24 01:52:43;;;;;;;49.33;12.50;;;;;;;-143.84;92.75;45066.22;5134372;27;20492;-73
2022/08/24 01:55:15;;;;;;;74.83;14.73;;;;;;;-143.84;92.81;45068.13;5134287;27;20591;-73
2022/08/24 01:57:43;;;;;;;55.77;12.33;;;;;;;-143.84;92.86;45090.97;5134446;27;20452;-73
2022/08/24 02:00:14;;;;;;;56.67;12.83;;;;;;;-143.84;93.38;45060.50;5134778;27;20442;-73
2022/08/24 02:02:43;;;;;;;62.03;12.40;;;;;;;-143.84;93.45;45087.16;5134161;27;20509;-73
2022/08/24 02:05:13;;;;;;;65.40;14.00;;;;;;;-143.84;93.68;45079.53;5134252;27;20932;-73
2022/08/24 02:07:40;;;;;;;63.03;13.30;;;;;;;-143.84;94.19;45094.78;5133895;27;20438;-73
2022/08/24 02:10:10;;;;;;;65.17;13.43;;;;;;;-143.84;94.55;45085.25;5134110;27;20418;-73
2022/08/24 02:12:40;;;;;;;61.10;12.17;;;;;;;-143.84;95.09;45058.59;5133957;27;20433;-73
2022/08/24 02:15:09;;;;;;;64.67;14.10;;;;;;;-143.84;95.42;45085.25;5133994;27;20470;-73
2022/08/24 02:17:39;;;;;;;72.23;13.90;;;;;;;-143.84;95.61;45079.53;5134334;27;20691;-73
2022/08/24 02:20:08;;;;;;;60.13;12.90;;;;;;;-143.84;95.70;45052.88;5133910;27;20932;-73
2022/08/24 02:22:35;;;;;;;81.63;14.60;;;;;;;-143.84;95.71;45066.22;5134129;27;20442;-73
2022/08/24 02:25:03;;;;;;;82.10;14.60;;;;;;;-143.84;95.73;45085.25;5133567;27;20473;-74
2022/08/24 02:27:30;;;;;;;79.57;12.37;;;;;;;-143.84;95.59;45073.81;5133959;27;20433;-73
2022/08/24 02:29:57;;;;;;;70.53;13.23;;;;;;;-143.84;95.79;45068.13;5133651;27;21002;-72
2022/08/24 02:32:24;;;;;;;96.90;15.63;;;;;;;-143.84;95.49;45071.91;5134194;27;20954;-73
2022/08/24 02:34:54;;;;;;;74.60;14.17;;;;;;;-143.84;95.53;45087.16;5133906;27;20490;-73
2022/08/24 02:37:21;;;;;;;95.00;14.40;;;;;;;-143.84;95.42;45106.19;5133956;27;20821;-72
2022/08/24 02:39:48;;;;;;;109.50;13.20;;;;;;;-143.84;95.21;45083.34;5133459;27;20434;-73
2022/08/24 02:42:16;;;;;;;105.07;13.80;;;;;;;-143.84;95.05;45083.34;5133086;27;20438;-73
2022/08/24 02:44:43;;;;;;;78.73;12.40;;;;;;;-143.84;95.53;45083.34;5133514;27;20438;-73
2022/08/24 02:47:10;;;;;;;101.57;14.40;;;;;;;-143.84;95.42;45079.53;5132919;27;20518;-73
2022/08/24 02:49:38;;;;;;;90.50;15.30;;;;;;;-143.84;95.26;45104.28;5133261;27;20438;-73
2022/08/24 02:52:06;;;;;;;100.50;13.90;;;;;;;-143.84;95.22;45092.88;5133730;27;20931;-71
2022/08/24 02:54:33;;;;;;;102.63;14.43;;;;;;;-143.84;95.30;45068.13;5132981;27;20449;-72
2022/08/24 02:57:01;;;;;;;92.90;14.07;;;;;;;-143.84;95.08;45064.31;5132813;27;20499;-72
2022/08/24 02:59:28;;;;;;;110.97;15.23;;;;;;;-143.84;95.12;45066.22;5132875;27;20449;-71
2022/08/24 03:01:55;;;;;;;104.50;14.20;;;;;;;-143.84;95.19;45064.31;5132878;27;20426;-72
2022/08/24 03:04:22;;;;;;;110.60;14.40;;;;;;;-143.84;95.28;45047.16;5132801;27;20503;-72
2022/08/24 03:06:50;;;;;;;104.07;13.10;;;;;;;-143.84;95.14;45073.81;5132534;27;20441;-72
2022/08/24 03:09:19;;;;;;;116.20;13.57;;;;;;;-143.84;95.30;45079.53;5132404;27;20434;-72
2022/08/24 03:11:46;;;;;;;79.93;12.93;;;;;;;-143.84;95.31;45104.28;5132643;27;20457;-72
2022/08/24 03:14:14;;;;;;;105.00;15.60;;;;;;;-143.84;95.14;45096.66;5132443;27;20450;-72
2022/08/24 03:16:41;;;;;;;92.13;12.60;;;;;;;-143.84;95.32;45064.31;5132442;27;20477;-72
2022/08/24 03:19:08;;;;;;;80.03;15.33;;;;;;;-143.84;95.16;45087.16;5121438;27;20447;-72
2022/08/24 03:21:36;;;;;;;90.03;13.00;;;;;;;-143.84;95.33;45075.72;5112320;28;20524;-75
2022/08/24 03:24:03;;;;;;;89.20;13.63;;;;;;;-143.84;95.40;45102.38;5122963;27;20438;-74
2022/08/24 03:26:32;;;;;;;85.47;12.07;;;;;;;-143.84;95.59;45073.81;5132622;27;20472;-74
2022/08/24 03:28:59;;;;;;;112.60;13.77;;;;;;;-143.84;95.58;45087.16;5132841;27;20948;-74
2022/08/24 03:31:26;;;;;;;106.77;14.73;;;;;;;-143.84;95.36;45071.91;5132337;27;20936;-73
2022/08/24 03:33:53;;;;;;;75.93;12.47;;;;;;;-143.84;95.45;45100.47;5133230;27;20959;-74
2022/08/24 03:36:20;;;;;;;69.77;12.27;;;;;;;-143.84;95.21;45098.56;5131968;27;20477;-73
2022/08/24 03:38:48;;;;;;;77.90;13.60;;;;;;;-143.84;94.82;45066.22;5131689;27;20487;-73
2022/08/24 03:41:15;;;;;;;86.17;14.50;;;;;;;-143.84;94.74;45098.56;5131720;27;20964;-73
2022/08/24 03:43:47;;;;;;;75.83;12.30;;;;;;;-143.84;94.58;45089.06;5132631;27;20441;-73
2022/08/24 03:46:18;;;;;;;111.33;11.73;;;;;;;-143.84;94.76;45054.78;5131768;27;20430;-73
2022/08/24 03:48:46;;;;;;;62.47;13.17;;;;;;;-143.84;94.60;45096.66;5131870;27;20438;-71
2022/08/24 03:51:15;;;;;;;75.70;12.90;;;;;;;-143.84;94.56;45087.16;5132660;27;20423;-73
2022/08/24 03:53:43;;;;;;;62.93;10.77;;;;;;;-143.84;94.14;45092.88;5132676;27;20857;-73
2022/08/24 03:56:10;;;;;;;55.53;10.33;;;;;;;-143.84;94.13;45056.69;5131881;27;20486;-73
2022/08/24 03:58:40;;;;;;;71.10;11.43;;;;;;;-143.84;93.88;45085.25;5132237;27;20495;-73
2022/08/24 04:01:10;;;;;;;65.30;11.43;;;;;;;-143.84;93.70;45104.28;5130538;27;20430;-73
2022/08/24 04:03:38;;;;;;;71.70;9.57;;;;;;;-143.84;93.40;45092.88;5129714;27;20434;-73
2022/08/24 04:06:05;;;;;;;53.87;9.47;;;;;;;-143.84;93.45;45098.56;5130564;27;20426;-73
2022/08/24 04:08:33;;;;;;;61.40;11.63;;;;;;;-143.84;93.13;45087.16;5113628;27;20439;-73
2022/08/24 04:11:01;;;;;;;79.47;11.50;;;;;;;-143.84;92.90;45157.59;5131102;27;20445;-73
2022/08/24 04:13:30;;;;;;;54.13;10.23;;;;;;;-143.84;92.65;45071.91;5131603;27;20434;-73
2022/08/24 04:15:57;;;;;;;59.40;10.47;;;;;;;-143.84;92.39;45077.63;5132625;27;20565;-73
2022/08/24 04:18:26;;;;;;;62.97;10.30;;;;;;;-143.84;92.18;45077.63;5132559;27;20439;-73
2022/08/24 04:20:53;;;;;;;53.00;8.77;;;;;;;-143.84;91.65;45115.72;5132488;27;20483;-73
2022/08/24 04:23:20;;;;;;;66.63;8.83;;;;;;;-143.84;91.38;45100.47;5132985;27;20436;-73
2022/08/24 04:25:48;;;;;;;69.77;9.50;;;;;;;-143.84;90.79;45094.78;5132593;27;20880;-73
2022/08/24 04:28:18;;;;;;;73.80;9.73;;;;;;;-143.84;90.04;45079.53;5132471;27;20435;-72
2022/08/24 04:30:49;;;;;;;51.17;8.57;;;;;;;-143.84;89.87;45070.00;5132854;27;20541;-73
2022/08/24 04:33:17;;;;;;;70.67;9.13;;;;;;;-143.84;89.33;45081.44;5132740;27;20463;-76
2022/08/24 04:35:48;;;;;;;54.30;8.07;;;;;;;-143.84;89.20;45089.06;5125124;27;20439;-76
2022/08/24 04:38:16;;;;;;;61.33;9.83;;;;;;;-143.84;89.02;45094.78;5130043;27;20441;-76
2022/08/24 04:40:46;;;;;;;53.60;8.03;;;;;;;-143.84;88.91;45117.63;5129975;27;20471;-75
2022/08/24 04:43:14;;;;;;;77.50;8.20;;;;;;;-143.84;88.48;45073.81;5129897;27;20491;-76
2022/08/24 04:45:43;;;;;;;58.53;10.40;;;;;;;-143.84;88.67;45064.31;5129985;27;20438;-76
2022/08/24 04:48:11;;;;;;;53.20;8.73;;;;;;;-143.84;88.28;45077.63;5129967;27;20442;-76
2022/08/24 04:50:40;;;;;;;69.33;9.20;;;;;;;-143.84;87.89;45083.34;5130100;27;20434;-76
2022/08/24 04:53:09;;;;;;;49.23;7.10;;;;;;;-143.84;87.76;45075.72;5129720;27;20433;-76
2022/08/24 04:55:44;;;;;;;61.60;8.43;;;;;;;-143.84;87.19;45081.44;5130018;28;20496;-77
2022/08/24 04:58:12;;;;;;;58.30;8.57;;;;;;;-143.84;86.78;45089.06;5130010;28;20437;-77
2022/08/24 05:00:40;;;;;;;35.63;6.30;;;;;;;-143.84;86.48;45071.91;5130115;28;20803;-77
2022/08/24 05:03:07;;;;;;;62.27;8.90;;;;;;;-143.84;86.29;45104.28;5130029;28;20445;-77
2022/08/24 05:05:34;;;;;;;55.43;7.47;;;;;;;-143.84;85.66;45083.34;5129947;28;20974;-76
2022/08/24 05:08:02;;;;;;;75.67;8.67;;;;;;;-143.84;85.09;45083.34;5130141;28;20495;-77
2022/08/24 05:10:30;;;;;;;54.00;9.07;;;;;;;-143.84;84.40;45077.63;5132655;27;20732;-76
2022/08/24 05:12:58;;;;;;;51.23;7.63;;;;;;;-143.84;84.81;45081.44;5134323;27;20935;-76
2022/08/24 05:15:25;;;;;;;52.17;7.87;;;;;;;-143.84;83.78;45085.25;5134196;27;20491;-76
2022/08/24 05:17:52;;;;;;;59.63;8.57;;;;;;;-143.84;83.37;45071.91;5133981;27;20473;-76
2022/08/24 05:20:20;;;;;;;48.47;7.50;;;;;;;-143.84;82.47;45079.53;5134034;27;20441;-77
2022/08/24 05:22:47;;;;;;;48.67;7.43;;;;;;;-143.84;82.44;45070.00;5134600;27;20434;-79
2022/08/24 05:25:14;;;;;;;44.90;7.47;;;;;;;-143.84;81.55;45092.88;5134769;27;20473;-79
2022/08/24 05:27:43;;;;;;;43.83;7.40;;;;;;;-143.84;80.69;45071.91;5135583;27;20456;-77
2022/08/24 05:30:11;;;;;;;41.00;7.30;;;;;;;-143.84;80.82;45052.88;5135485;27;21261;-77
2022/08/24 05:32:39;;;;;;;50.20;8.03;;;;;;;-143.84;80.65;45083.34;5135188;27;20791;-77
2022/08/24 05:35:07;;;;;;;68.70;7.80;;;;;;;-143.84;80.37;45077.63;5134966;27;21153;-77
2022/08/24 05:37:35;;;;;;;47.43;7.50;;;;;;;-143.84;79.65;45071.91;5134349;27;20470;-77
2022/08/24 05:40:03;;;;;;;62.30;8.93;;;;;;;-143.84;78.91;45071.91;5115821;27;20429;-77
2022/08/24 05:42:31;;;;;;;54.40;7.10;;;;;;;-143.84;78.74;45062.41;5133632;27;20433;-77
2022/08/24 05:44:59;;;;;;;52.30;7.47;;;;;;;-143.84;78.19;45085.25;5133384;27;20502;-78
2022/08/24 05:47:27;;;;;;;53.60;9.03;;;;;;;-143.84;77.85;45073.81;5133536;27;20931;-77
2022/08/24 05:49:54;;;;;;;50.83;8.90;;;;;;;-143.84;77.66;45075.72;5133606;27;20438;-77
2022/08/24 05:52:22;;;;;;;47.23;7.27;;;;;;;-143.84;77.51;45068.13;5134286;27;20440;-77
2022/08/24 05:54:52;;;;;;;44.43;8.23;;;;;;;-143.84;77.34;45062.41;5134804;27;20545;-77
2022/08/24 05:57:20;;;;;;;62.10;7.63;;;;;;;-143.84;76.49;45068.13;5134765;27;20861;-77
2022/08/24 05:59:47;;;;;;;60.43;9.40;;;;;;;-143.84;76.41;45060.50;5134644;27;20430;-77
2022/08/24 06:02:16;;;;;;;63.60;9.70;;;;;;;-143.84;75.98;45066.22;5134932;27;20954;-77
2022/08/24 06:04:44;;;;;;;59.50;8.57;;;;;;;-143.84;74.74;45054.78;5134436;27;21248;-77
2022/08/24 06:07:12;;;;;;;66.03;9.43;;;;;;;-143.84;72.85;45062.41;5134176;27;20962;-77
2022/08/24 06:09:40;;;;;;;74.70;7.67;;;;;;;-143.84;70.91;45056.69;5134316;27;20455;-78
2022/08/24 06:12:11;;;;;;;79.80;8.80;;;;;;;-143.84;69.06;45062.41;5134303;27;20848;-77
2022/08/24 06:14:38;;;;;;;74.63;9.00;;;;;;;-143.84;67.24;45039.53;5134550;27;20790;-77
2022/08/24 06:17:07;;;;;;;69.30;9.00;;;;;;;-143.84;66.57;45026.22;5133964;27;20526;-77
2022/08/24 06:19:36;;;;;;;69.07;8.93;;;;;;;-143.84;64.26;45012.88;5134287;27;20473;-77
2022/08/24 06:22:03;;;;;;;67.20;8.70;;;;;;;-143.84;61.55;45022.41;5133634;27;20807;-77
2022/08/24 06:27:24;;;;;;;65.10;9.40;;;;;;;-143.84;60.82;45033.84;5134153;27;20425;-77
2022/08/24 06:29:53;;;;;;;72.00;8.50;;;;;;;-143.84;61.01;45016.69;5133775;27;20487;-77
2022/08/24 06:32:20;;;;;;;82.37;9.27;;;;;;;-143.84;59.81;45009.09;5133970;27;20955;-77
2022/08/24 06:34:49;;;;;;;53.53;9.40;;;;;;;-143.84;60.00;45018.59;5133728;27;20518;-78
2022/08/24 06:37:17;;;;;;;64.33;8.77;;;;;;;-143.84;58.93;45018.59;5133736;27;20966;-77
2022/08/24 06:39:44;;;;;;;59.30;7.97;;;;;;;-143.84;60.98;45001.47;5133753;27;20460;-77
2022/08/24 06:42:11;;;;;;;52.97;8.20;;;;;;;-143.84;62.32;45028.13;5134004;27;20430;-77
2022/08/24 06:44:38;;;;;;;69.10;8.67;;;;;;;-143.84;59.85;44982.41;5133949;27;20438;-77
2022/08/24 06:47:06;;;;;;;104.73;10.30;;;;;;;-143.84;59.50;45020.50;5133373;27;20502;-78
2022/08/24 06:49:33;;;;;;;92.03;9.43;;;;;;;-143.84;58.86;44990.03;5133043;27;20446;-77
2022/08/24 06:52:01;;;;;;;118.47;11.87;;;;;;;-143.84;58.63;45026.22;5133020;27;20491;-77
2022/08/24 06:54:28;;;;;;;89.53;10.23;;;;;;;-143.84;59.25;45001.47;5133287;27;20519;-77
2022/08/24 06:56:57;;;;;;;75.70;9.80;;;;;;;-143.84;59.18;45020.50;5133055;27;20476;-78
2022/08/24 06:59:25;;;;;;;78.83;9.67;;;;;;;-143.84;59.36;45022.41;5133274;27;20438;-77
2022/08/24 07:01:54;;;;;;;90.20;10.37;;;;;;;-143.84;59.37;45033.84;5133575;27;20434;-77
2022/08/24 07:04:22;;;;;;;87.07;11.50;;;;;;;-143.84;59.21;45024.31;5133080;27;20491;-77
2022/08/24 07:06:49;;;;;;;123.13;10.53;;;;;;;-143.84;59.47;45020.50;5133136;27;21293;-77
2022/08/24 07:09:18;;;;;;;88.33;10.17;;;;;;;-143.84;60.79;44999.56;5133197;27;20920;-77
2022/08/24 07:11:45;;;;;;;87.00;10.90;;;;;;;-143.84;60.26;44993.84;5133128;27;20442;-77
2022/08/24 07:14:12;;;;;;;91.03;10.43;;;;;;;-143.84;60.35;45024.31;5133201;27;20442;-77
2022/08/24 07:16:39;;;;;;;90.87;11.63;;;;;;;-143.84;59.66;45028.13;5132886;27;20433;-77
2022/08/24 07:19:07;;;;;;;140.13;13.33;;;;;;;-143.84;59.68;45009.09;5132747;27;20468;-78
2022/08/24 07:21:34;;;;;;;81.80;10.60;;;;;;;-143.84;59.57;45016.69;5133020;27;20491;-77
2022/08/24 07:24:03;;;;;;;69.37;10.00;;;;;;;-143.84;61.25;45026.22;5132508;27;20446;-77
2022/08/24 07:26:32;;;;;;;106.73;10.57;;;;;;;-143.84;63.58;45012.88;5132654;27;20496;-77
2022/08/24 07:29:05;;;;;;;98.03;10.87;;;;;;;-143.84;68.13;45026.22;5132862;27;20491;-77
2022/08/24 07:31:33;;;;;;;111.90;11.03;;;;;;;-143.84;70.08;45039.53;5132594;27;20442;-77
2022/08/24 07:34:02;;;;;;;102.03;11.37;;;;;;;-143.84;69.85;45005.28;5113182;27;20439;-76
2022/08/24 07:36:29;;;;;;;106.90;11.03;;;;;;;-143.84;72.21;45007.19;5132185;27;20640;-77
2022/08/24 07:38:57;;;;;;;75.03;9.40;;;;;;;-143.84;69.69;45007.19;5132269;27;20912;-77
2022/08/24 07:41:26;;;;;;;93.63;10.80;;;;;;;-143.84;68.24;44999.56;5132720;27;20477;-77
2022/08/24 07:43:55;;;;;;;65.63;10.83;;;;;;;-143.84;66.90;44995.75;5132327;27;20960;-77
2022/08/24 07:46:23;;;;;;;78.77;10.70;;;;;;;-143.84;67.88;44961.47;5132571;27;20862;-76
2022/08/24 07:48:50;;;;;;;75.83;9.90;;;;;;;-143.84;65.25;45007.19;5132652;27;20811;-76
2022/08/24 07:51:19;;;;;;;63.93;10.80;;;;;;;-143.84;65.13;44971.00;5132513;27;20442;-76
2022/08/24 07:53:46;;;;;;;61.00;9.70;;;;;;;-143.84;61.83;44980.53;5131928;27;20847;-77
2022/08/24 07:56:13;;;;;;;72.60;9.60;;;;;;;-143.84;59.22;45001.47;5131970;27;21421;-76
2022/08/24 07:58:40;;;;;;;68.47;9.17;;;;;;;-143.84;58.78;44961.47;5131761;27;20478;-76
2022/08/24 08:01:09;;;;;;;81.63;9.53;;;;;;;-143.84;56.05;44953.88;5131852;27;20442;-76
2022/08/24 08:03:37;;;;;;;78.47;10.13;;;;;;;-143.84;53.15;44925.31;5131543;27;20978;-76
2022/08/24 08:06:06;;;;;;;76.70;9.47;;;;;;;-143.84;52.54;44932.91;5131232;27;20854;-76
2022/08/24 08:08:36;;;;;;;72.53;9.97;;;;;;;-143.84;47.00;44940.53;5131711;27;20446;-76
2022/08/24 08:11:03;;;;;;;67.60;9.03;;;;;;;-143.84;49.37;44942.44;5131800;27;20471;-76
2022/08/24 08:13:31;;;;;;;84.67;10.30;;;;;;;-143.84;48.14;44931.00;5131684;27;20438;-76
2022/08/24 08:15:58;;;;;;;87.10;11.23;;;;;;;-143.84;47.46;44913.88;5131201;27;20438;-76
2022/08/24 08:18:27;;;;;;;72.53;9.93;;;;;;;-143.84;46.57;44929.09;5131246;27;20507;-75
2022/08/24 08:20:54;;;;;;;82.30;12.20;;;;;;;-143.84;44.07;44896.75;5130888;27;20514;-76
2022/08/24 08:26:12;;;;;;;91.07;11.17;;;;;;;-143.84;43.07;44881.50;5131319;27;20516;-76
2022/08/24 08:28:41;;;;;;;82.67;8.80;;;;;;;-143.84;43.10;44868.19;5121505;27;20500;-77
2022/08/24 08:31:08;;;;;;;66.03;10.37;;;;;;;-143.84;41.12;44908.16;5112232;27;20474;-73
2022/08/24 08:33:37;;;;;;;86.37;11.27;;;;;;;-143.84;39.79;44862.47;5137944;27;20465;-73
2022/08/24 08:36:06;;;;;;;80.40;11.67;;;;;;;-143.84;40.25;44896.75;5133289;27;20453;-73
2022/08/24 08:38:35;;;;;;;77.03;9.17;;;;;;;-143.84;40.17;44887.22;5129711;27;20489;-73
2022/08/24 08:41:18;;;;;;;84.13;10.50;;;;;;;-143.84;41.74;44870.09;5120576;27;20450;-73
2022/08/24 08:43:51;;;;;;;95.63;11.00;;;;;;;-143.84;40.81;44883.41;5106612;27;20500;-73
2022/08/24 08:46:37;;;;;;;66.33;10.70;;;;;;;-143.84;41.55;44889.13;5127545;27;20447;-74
2022/08/24 08:49:28;;;;;;;61.90;10.67;;;;;;;-143.84;39.80;44875.78;5130801;27;20441;-74
2022/08/24 08:52:29;;;;;;;88.23;8.53;;;;;;;-143.84;40.61;44879.59;5121603;27;20453;-74
2022/08/24 08:55:05;;;;;;;79.50;9.30;;;;;;;-143.84;39.51;44913.88;5113972;28;20462;-73
2022/08/24 08:57:47;;;;;;;76.50;11.60;;;;;;;-143.84;40.37;44885.31;5136229;27;20521;-74
2022/08/24 09:00:17;;;;;;;99.20;9.93;;;;;;;-143.84;41.28;44862.47;5124067;27;20444;-76
2022/08/24 09:03:35;;;;;;;67.13;9.10;;;;;;;-143.84;38.44;44854.84;5124479;27;20449;-76
2022/08/24 09:06:26;;;;;;;107.20;10.80;;;;;;;-143.84;38.61;44841.53;5051487;28;20446;-75
2022/08/24 09:09:10;;;;;;;88.93;11.63;;;;;;;-143.84;37.91;44870.09;5053981;28;20527;-76
2022/08/24 09:11:50;;;;;;;82.87;9.93;;;;;;;-143.84;37.15;44805.34;5110908;27;20457;-76
2022/08/24 09:14:39;;;;;;;72.57;9.13;;;;;;;-143.84;37.38;44854.84;5138347;27;20449;-76
2022/08/24 09:17:30;;;;;;;102.00;10.30;;;;;;;-143.84;37.51;44858.66;5123114;27;20936;-76
2022/08/24 09:20:12;;;;;;;90.73;10.97;;;;;;;-143.84;39.42;44841.53;5120328;27;20802;-75
2022/08/24 09:22:46;;;;;;;82.07;9.97;;;;;;;-143.84;41.27;44870.09;5117756;27;20458;-75
2022/08/24 09:25:27;;;;;;;81.93;14.80;;;;;;;-143.84;41.05;44835.81;5138944;27;20564;-76
2022/08/24 09:28:12;;;;;;;79.10;13.50;;;;;;;-143.84;41.51;44877.69;5111500;27;20445;-75
2022/08/24 09:31:02;;;;;;;118.30;18.97;;;;;;;-143.84;39.83;44851.03;5126830;27;20457;-76
2022/08/24 09:33:35;;;;;;;90.93;11.97;;;;;;;-143.84;39.80;44847.22;5119892;27;20453;-75
2022/08/24 09:36:11;;;;;;;83.53;11.27;;;;;;;-143.84;39.48;44868.19;5114963;27;20449;-75
2022/08/24 09:38:59;;;;;;;68.43;10.40;;;;;;;-143.84;39.74;44828.19;5115470;27;21064;-76
2022/08/24 09:42:34;;;;;;;127.40;10.63;;;;;;;-143.84;39.30;44877.69;5127908;27;20471;-78
2022/08/24 09:45:25;;;;;;;100.53;10.60;;;;;;;-143.84;40.80;44847.22;5119374;28;20458;-74
2022/08/24 09:48:18;;;;;;;83.60;10.90;;;;;;;-143.84;38.35;44833.91;5131350;27;20461;-74
2022/08/24 09:51:13;;;;;;;94.83;10.40;;;;;;;-143.84;37.56;44843.44;5123797;27;20446;-74
2022/08/24 09:54:00;;;;;;;80.97;10.80;;;;;;;-143.84;37.15;44854.84;5129048;27;21092;-74
2022/08/24 09:56:52;;;;;;;74.10;10.17;;;;;;;-143.84;37.22;44864.38;5126467;27;20438;-74
2022/08/24 09:59:38;;;;;;;91.07;10.73;;;;;;;-143.84;38.35;44811.06;5129288;27;20486;-73
2022/08/24 10:02:25;;;;;;;85.30;9.87;;;;;;;-143.84;38.92;44843.44;5130729;27;20530;-74
2022/08/24 10:05:04;;;;;;;86.43;11.40;;;;;;;-143.84;38.87;44830.09;5135511;27;20803;-73
2022/08/24 10:07:41;;;;;;;119.20;11.20;;;;;;;-143.84;39.77;44870.09;5155851;27;20475;-73
2022/08/24 10:10:27;;;;;;;75.27;10.60;;;;;;;-143.84;40.37;44904.34;5134017;27;20450;-73
2022/08/24 10:13:07;;;;;;;105.93;10.80;;;;;;;-143.84;40.95;44877.69;5142181;27;20445;-73
2022/08/24 10:15:44;;;;;;;87.33;9.37;;;;;;;-143.84;40.90;44885.31;5129178;27;20433;-73
2022/08/24 10:18:25;;;;;;;77.87;10.43;;;;;;;-143.84;40.66;44919.59;5137806;27;20489;-73
2022/08/24 10:21:13;;;;;;;93.37;9.20;;;;;;;-143.84;40.37;44915.78;5135608;27;20443;-73
2022/08/24 10:24:03;;;;;;;109.43;10.77;;;;;;;-143.84;39.93;44925.31;5135110;27;20520;-73
2022/08/24 10:26:40;;;;;;;70.70;9.30;;;;;;;-143.84;40.41;44904.34;5120441;27;20497;-73
2022/08/24 10:29:27;;;;;;;117.67;10.90;;;;;;;-143.84;41.99;44911.97;5114060;28;21115;-73
2022/08/24 10:32:11;;;;;;;83.37;9.43;;;;;;;-143.84;41.08;44932.91;5113995;28;20845;-73
2022/08/24 10:34:58;;;;;;;67.83;9.07;;;;;;;-143.84;41.15;44898.66;5113947;28;20431;-73
2022/08/24 10:39:39;;;;;;;77.37;9.33;;;;;;;-143.84;41.15;44931.00;5113329;27;20442;-73
2022/08/24 10:40:52;;;;;;;95.30;9.33;;;;;;;-143.84;41.83;44915.78;5112415;28;20469;-72
2022/08/24 10:43:40;;;;;;;57.40;7.90;;;;;;;-143.84;42.57;44904.34;5113465;28;20439;-73
2022/08/24 10:46:33;;;;;;;82.13;8.43;;;;;;;-143.84;41.12;44913.88;5113534;28;20447;-73
2022/08/24 10:49:28;;;;;;;44.23;8.20;;;;;;;-143.84;42.31;44898.66;5113257;28;20454;-72
2022/08/24 10:52:30;;;;;;;81.23;9.93;;;;;;;-143.84;40.88;44910.06;5113168;27;20532;-72
2022/08/24 10:55:11;;;;;;;66.87;7.57;;;;;;;-143.84;40.53;44896.75;5113653;28;20450;-74
2022/08/24 10:57:43;;;;;;;65.20;8.37;;;;;;;-143.84;40.03;44919.59;5113291;28;20427;-73
2022/08/24 11:00:17;;;;;;;64.60;8.20;;;;;;;-143.84;39.92;44868.19;5113298;28;20438;-74
2022/08/24 11:02:47;;;;;;;86.23;10.00;;;;;;;-143.84;39.56;44868.19;5113137;27;20465;-73
2022/08/24 11:05:28;;;;;;;67.67;8.73;;;;;;;-143.84;39.86;44868.19;5113249;28;20435;-73
2022/08/24 11:07:58;;;;;;;63.30;9.73;;;;;;;-143.84;40.49;44854.84;5113012;28;20906;-73
2022/08/24 11:10:29;;;;;;;96.77;9.80;;;;;;;-143.84;39.99;44875.78;5113810;28;20897;-74
2022/08/24 11:13:14;;;;;;;62.57;8.93;;;;;;;-143.84;40.53;44883.41;5113278;28;20438;-73
2022/08/24 11:15:50;;;;;;;68.90;8.40;;;;;;;-143.84;40.61;44873.88;5112829;28;20441;-73
2022/08/24 11:18:18;;;;;;;78.37;10.40;;;;;;;-143.84;42.04;44870.09;5112781;28;20518;-73
2022/08/24 11:20:48;;;;;;;57.43;9.07;;;;;;;-143.84;44.00;44871.97;5112815;28;20466;-73
2022/08/24 11:23:20;;;;;;;61.90;10.93;;;;;;;-143.84;44.33;44879.59;5112738;28;20979;-73
2022/08/24 11:25:56;;;;;;;78.47;8.33;;;;;;;-143.84;45.64;44900.53;5112482;28;20471;-73
2022/08/24 11:28:31;;;;;;;92.93;9.87;;;;;;;-143.84;47.13;44904.34;5112874;28;20453;-73
2022/08/24 11:31:02;;;;;;;70.73;9.77;;;;;;;-143.84;47.37;44887.22;5112783;28;20499;-73
2022/08/24 11:33:32;;;;;;;63.50;7.47;;;;;;;-143.84;45.47;44887.22;5112574;28;20621;-73